Time;durP1;ratioP1;P1;durP2;ratioP2;P2;SDS_P1;SDS_P2;PMS_P1;PMS_P2;Temp;Humidity;BMP_temperature;BMP_pressure;BME280_temperature;BME280_humidity;BME280_pressure;Samples;Min_cycle;Max_cycle;Signal;HPM_P1;HPM_P2
2023/09/10 00:00:30;;;;;;;17.52;13.15;;;22.60;84.50;;;;;;5052101;28;20033;-80
2023/09/10 00:02:55;;;;;;;18.02;13.68;;;22.60;84.70;;;;;;5052044;28;20099;-80
2023/09/10 00:05:21;;;;;;;16.55;12.73;;;22.50;85.90;;;;;;5051855;28;20056;-80
2023/09/10 00:07:47;;;;;;;17.63;13.70;;;22.50;85.40;;;;;;5035496;28;20021;-80
2023/09/10 00:10:13;;;;;;;18.98;14.02;;;22.50;85.70;;;;;;5051853;28;20063;-81
2023/09/10 00:12:40;;;;;;;18.92;13.75;;;22.50;86.00;;;;;;5051994;28;20026;-80
2023/09/10 00:15:06;;;;;;;19.50;13.63;;;22.50;86.00;;;;;;5052001;28;20056;-80
2023/09/10 00:17:32;;;;;;;18.63;14.00;;;22.50;85.80;;;;;;5051895;28;20046;-81
2023/09/10 00:19:57;;;;;;;18.55;13.95;;;22.50;86.10;;;;;;5051565;28;20053;-81
2023/09/10 00:22:23;;;;;;;18.92;14.65;;;22.50;86.10;;;;;;5052793;28;20041;-80
2023/09/10 00:24:49;;;;;;;23.38;16.02;;;22.40;86.10;;;;;;5051776;28;20033;-80
2023/09/10 00:27:14;;;;;;;18.52;15.20;;;22.40;86.30;;;;;;5052752;28;20034;-80
2023/09/10 00:29:40;;;;;;;20.35;14.20;;;22.50;86.40;;;;;;5051745;28;20040;-80
2023/09/10 00:32:06;;;;;;;18.38;14.32;;;22.50;86.50;;;;;;5035189;28;20033;-81
2023/09/10 00:34:32;;;;;;;20.00;14.48;;;22.40;86.30;;;;;;5051782;28;20032;-80
2023/09/10 00:36:59;;;;;;;20.40;15.20;;;22.50;87.10;;;;;;5035430;28;20025;-80
2023/09/10 00:39:24;;;;;;;19.00;14.80;;;22.50;87.30;;;;;;5035150;28;20026;-80
2023/09/10 00:41:53;;;;;;;20.23;15.77;;;22.50;86.40;;;;;;5051720;28;20028;-80
2023/09/10 00:44:20;;;;;;;24.20;17.33;;;22.50;86.50;;;;;;5051604;28;20018;-80
2023/09/10 00:46:45;;;;;;;22.02;16.88;;;22.50;86.90;;;;;;5051683;28;20048;-80
2023/09/10 00:49:12;;;;;;;22.75;16.73;;;22.40;87.30;;;;;;5053732;28;20022;-80
2023/09/10 00:51:38;;;;;;;19.70;14.52;;;22.40;87.50;;;;;;5055067;28;20025;-80
2023/09/10 00:54:05;;;;;;;19.83;14.73;;;22.30;87.50;;;;;;5055148;28;20022;-80
2023/09/10 00:56:31;;;;;;;19.55;15.13;;;22.30;87.60;;;;;;5056076;28;20037;-80
2023/09/10 00:58:57;;;;;;;20.30;15.50;;;22.30;88.00;;;;;;5038466;28;20029;-80
2023/09/10 01:01:23;;;;;;;20.88;15.27;;;22.30;88.00;;;;;;5038587;28;20032;-80
2023/09/10 01:03:49;;;;;;;23.23;16.73;;;22.30;87.80;;;;;;5054946;28;20045;-80
2023/09/10 01:06:15;;;;;;;20.67;15.90;;;22.30;87.90;;;;;;5055008;28;20034;-80
2023/09/10 01:08:41;;;;;;;23.67;17.65;;;22.30;88.70;;;;;;5038358;28;20025;-80
2023/09/10 01:11:31;;;;;;;21.70;16.63;;;22.30;87.70;;;;;;5054817;28;20032;-80
2023/09/10 01:14:15;;;;;;;23.05;17.05;;;22.40;87.70;;;;;;5055756;28;20026;-80
2023/09/10 01:17:05;;;;;;;24.85;17.65;;;22.30;87.90;;;;;;5054693;28;20047;-80
2023/09/10 01:19:51;;;;;;;22.00;16.23;;;22.40;87.90;;;;;;5055448;28;20055;-81
2023/09/10 01:22:35;;;;;;;22.20;16.48;;;22.40;87.50;;;;;;5054713;28;20033;-81
2023/09/10 01:25:02;;;;;;;22.65;16.60;;;22.40;87.40;;;;;;5055776;28;20056;-80
2023/09/10 01:27:28;;;;;;;22.20;16.67;;;22.40;87.40;;;;;;5055506;28;20045;-80
2023/09/10 01:29:53;;;;;;;23.42;17.02;;;22.40;87.40;;;;;;5037846;28;20100;-80
2023/09/10 01:32:34;;;;;;;22.60;16.73;;;22.40;87.30;;;;;;5055387;28;20061;-80
2023/09/10 01:35:12;;;;;;;24.38;16.27;;;22.40;87.30;;;;;;5054277;28;20018;-81
2023/09/10 01:38:01;;;;;;;26.25;17.80;;;22.40;87.30;;;;;;5055345;28;20053;-81
2023/09/10 01:40:34;;;;;;;27.52;17.85;;;22.40;87.40;;;;;;5055262;28;20089;-80
2023/09/10 01:43:00;;;;;;;;;;;22.40;87.40;;;;;;5055667;28;20045;-80
2023/09/10 01:45:26;;;;;;;23.35;16.45;;;22.40;87.30;;;;;;5055194;28;19916;-80
2023/09/10 01:47:52;;;;;;;23.35;16.98;;;22.30;87.40;;;;;;5054224;28;20041;-80
2023/09/10 01:50:18;;;;;;;27.20;19.73;;;22.20;87.70;;;;;;5054255;28;20030;-80
2023/09/10 01:52:44;;;;;;;26.58;18.63;;;22.30;88.10;;;;;;5055026;28;20014;-80
2023/09/10 01:55:10;;;;;;;28.50;19.95;;;22.30;88.10;;;;;;5053957;28;20028;-80
2023/09/10 01:57:35;;;;;;;27.00;19.02;;;22.30;88.10;;;;;;5054037;28;20029;-80
2023/09/10 02:00:01;;;;;;;24.23;18.30;;;22.30;87.90;;;;;;5036213;28;20034;-81
2023/09/10 02:02:26;;;;;;;25.77;17.67;;;22.30;87.80;;;;;;5037202;28;20132;-80
2023/09/10 02:04:52;;;;;;;27.30;19.30;;;22.30;87.80;;;;;;5053855;28;20041;-80
2023/09/10 02:07:18;;;;;;;26.80;18.98;;;22.30;87.90;;;;;;5054726;28;20041;-80
2023/09/10 02:09:43;;;;;;;26.23;18.90;;;22.20;87.90;;;;;;5053649;28;20504;-81
2023/09/10 02:12:09;;;;;;;24.63;19.23;;;22.20;88.20;;;;;;5037159;28;20036;-80
2023/09/10 02:14:35;;;;;;;22.95;18.13;;;22.10;88.30;;;;;;5053676;28;20052;-80
2023/09/10 02:17:00;;;;;;;22.58;17.50;;;22.00;88.20;;;;;;5053708;28;20029;-80
2023/09/10 02:19:26;;;;;;;24.70;17.38;;;22.00;88.30;;;;;;5054326;28;20057;-80
2023/09/10 02:21:53;;;;;;;23.08;17.42;;;22.00;88.40;;;;;;5036975;28;20041;-80
2023/09/10 02:24:19;;;;;;;27.85;17.13;;;21.90;88.70;;;;;;5053499;28;20026;-79
2023/09/10 02:26:44;;;;;;;23.05;16.55;;;21.90;88.70;;;;;;5053457;28;20045;-80
2023/09/10 02:29:10;;;;;;;20.98;16.67;;;21.80;89.50;;;;;;5053362;28;20029;-80
2023/09/10 02:31:35;;;;;;;24.77;17.92;;;21.80;88.60;;;;;;5036745;28;20037;-81
2023/09/10 02:34:01;;;;;;;23.80;17.80;;;21.90;88.80;;;;;;5036733;28;20029;-80
2023/09/10 02:36:28;;;;;;;24.33;18.95;;;21.90;88.90;;;;;;5036678;28;20052;-80
2023/09/10 02:38:53;;;;;;;26.20;18.10;;;21.90;88.90;;;;;;5053171;28;20406;-80
2023/09/10 02:41:19;;;;;;;26.02;18.48;;;21.90;89.00;;;;;;5053116;28;20026;-80
2023/09/10 02:43:45;;;;;;;25.25;18.90;;;21.80;89.20;;;;;;5053112;28;20092;-80
2023/09/10 02:46:10;;;;;;;27.27;20.42;;;21.80;89.50;;;;;;5036488;28;20094;-80
2023/09/10 02:48:36;;;;;;;29.30;21.42;;;21.80;89.60;;;;;;5053117;28;20026;-80
2023/09/10 02:51:01;;;;;;;33.70;21.77;;;21.90;89.70;;;;;;5052828;28;20029;-81
2023/09/10 02:53:27;;;;;;;23.50;17.92;;;21.90;89.70;;;;;;5052901;28;20036;-80
2023/09/10 02:56:00;;;;;;;23.45;17.85;;;21.90;89.20;;;;;;5053132;28;20037;-80
2023/09/10 02:58:26;;;;;;;24.90;18.65;;;21.90;89.10;;;;;;5052879;28;20021;-80
2023/09/10 03:00:51;;;;;;;25.55;19.52;;;21.80;89.20;;;;;;5036207;28;20040;-81
2023/09/10 03:03:19;;;;;;;28.38;19.65;;;21.80;89.60;;;;;;5053739;28;20036;-80
2023/09/10 03:05:45;;;;;;;27.65;20.52;;;21.80;90.20;;;;;;5036501;28;20037;-80
2023/09/10 03:08:11;;;;;;;28.45;21.23;;;21.90;89.80;;;;;;5053659;28;20028;-80
2023/09/10 03:10:37;;;;;;;23.20;17.77;;;21.90;89.60;;;;;;5052332;28;20508;-81
2023/09/10 03:13:02;;;;;;;25.75;17.92;;;21.90;89.10;;;;;;5036054;28;20018;-81
2023/09/10 03:15:28;;;;;;;26.05;17.88;;;21.90;88.90;;;;;;5052574;28;20100;-81
2023/09/10 03:17:53;;;;;;;23.27;18.17;;;21.80;88.80;;;;;;5036066;28;20033;-81
2023/09/10 03:20:19;;;;;;;20.65;16.25;;;21.80;89.90;;;;;;5035802;28;20057;-80
2023/09/10 03:22:45;;;;;;;20.80;15.52;;;21.80;89.10;;;;;;5052479;28;20025;-81
2023/09/10 03:25:10;;;;;;;23.27;18.73;;;21.80;89.20;;;;;;5052523;28;20033;-80
2023/09/10 03:27:36;;;;;;;25.67;19.55;;;21.80;89.50;;;;;;5052681;28;20030;-81
2023/09/10 03:30:05;;;;;;;22.83;17.33;;;21.70;89.70;;;;;;5052278;28;20080;-80
2023/09/10 03:32:30;;;;;;;23.20;18.05;;;21.70;89.70;;;;;;5053340;28;20021;-80
2023/09/10 03:34:56;;;;;;;27.13;19.25;;;21.70;89.70;;;;;;5053180;28;20025;-80
2023/09/10 03:37:22;;;;;;;28.15;21.27;;;21.70;89.70;;;;;;5035731;28;20025;-80
2023/09/10 03:39:47;;;;;;;30.95;21.60;;;21.60;89.70;;;;;;5035736;28;20048;-80
2023/09/10 03:42:13;;;;;;;30.92;22.90;;;21.60;89.90;;;;;;5052190;28;20033;-81
2023/09/10 03:44:39;;;;;;;29.42;22.02;;;21.60;90.00;;;;;;5053199;28;20022;-80
2023/09/10 03:47:04;;;;;;;27.83;22.13;;;21.70;90.10;;;;;;5052212;28;20040;-80
2023/09/10 03:49:30;;;;;;;30.50;22.80;;;21.60;90.10;;;;;;5052126;28;20055;-80
2023/09/10 03:52:00;;;;;;;27.45;20.95;;;21.60;90.10;;;;;;5052210;28;20033;-81
2023/09/10 03:54:26;;;;;;;25.15;19.88;;;21.60;90.10;;;;;;5052334;28;20077;-80
2023/09/10 03:56:51;;;;;;;31.65;21.90;;;21.60;90.10;;;;;;5053032;28;20044;-80
2023/09/10 03:59:18;;;;;;;30.55;22.65;;;21.60;90.10;;;;;;5052058;28;20060;-81
2023/09/10 04:01:43;;;;;;;25.73;19.10;;;21.60;90.10;;;;;;5052197;28;20021;-80
2023/09/10 04:04:09;;;;;;;27.73;20.35;;;21.50;90.20;;;;;;5052103;28;20033;-80
2023/09/10 04:06:35;;;;;;;26.13;19.55;;;21.50;90.30;;;;;;5035393;28;20125;-80
2023/09/10 04:09:00;;;;;;;28.70;20.33;;;21.50;90.40;;;;;;5035617;28;20048;-80
2023/09/10 04:11:26;;;;;;;27.75;19.90;;;21.40;90.40;;;;;;5051935;28;20033;-79
2023/09/10 04:13:51;;;;;;;26.05;19.38;;;21.40;90.50;;;;;;5051955;28;20072;-79
2023/09/10 04:16:17;;;;;;;26.33;20.23;;;21.30;90.60;;;;;;5051966;28;20034;-79
2023/09/10 04:18:43;;;;;;;27.67;20.42;;;21.30;90.70;;;;;;5051860;28;20052;-79
2023/09/10 04:21:09;;;;;;;30.95;22.73;;;21.30;90.80;;;;;;5051873;28;20042;-79
2023/09/10 04:23:35;;;;;;;35.25;23.88;;;21.30;90.90;;;;;;5036832;28;20029;-79
2023/09/10 04:26:00;;;;;;;35.55;24.85;;;21.30;90.90;;;;;;5039159;28;20056;-80
2023/09/10 04:28:26;;;;;;;36.13;25.95;;;21.30;91.00;;;;;;5055659;28;20041;-80
2023/09/10 04:30:51;;;;;;;38.30;26.98;;;21.30;91.10;;;;;;5056481;28;20112;-80
2023/09/10 04:33:17;;;;;;;38.08;27.17;;;21.30;91.10;;;;;;5039022;28;20060;-79
2023/09/10 04:36:01;;;;;;;38.70;25.85;;;21.40;91.10;;;;;;5055542;28;20491;-80
2023/09/10 04:38:26;;;;;;;36.72;26.70;;;21.40;91.00;;;;;;5055544;28;20049;-81
2023/09/10 04:40:52;;;;;;;42.45;28.38;;;21.40;91.00;;;;;;5055500;28;20036;-81
2023/09/10 04:43:17;;;;;;;44.53;28.92;;;21.50;91.00;;;;;;5055226;28;20049;-81
2023/09/10 04:45:43;;;;;;;43.03;28.50;;;21.50;91.00;;;;;;5055331;28;20026;-81
2023/09/10 04:48:12;;;;;;;44.95;28.83;;;21.50;91.00;;;;;;5038805;28;20084;-80
2023/09/10 04:50:38;;;;;;;44.10;30.38;;;21.50;91.00;;;;;;5055290;28;20548;-80
2023/09/10 04:53:04;;;;;;;44.72;30.55;;;21.50;91.00;;;;;;5038652;28;20029;-80
2023/09/10 04:55:29;;;;;;;45.72;30.73;;;21.50;91.00;;;;;;5056114;28;20029;-80
2023/09/10 04:57:55;;;;;;;49.38;31.95;;;21.50;91.00;;;;;;5038471;28;20053;-80
2023/09/10 05:00:20;;;;;;;49.33;32.00;;;21.50;91.00;;;;;;5055131;28;20037;-81
2023/09/10 05:02:46;;;;;;;48.47;32.63;;;21.50;91.00;;;;;;5055091;28;20034;-80
2023/09/10 05:05:11;;;;;;;49.03;32.17;;;21.50;91.00;;;;;;5038498;28;20029;-80
2023/09/10 05:07:37;;;;;;;48.75;32.47;;;21.50;91.10;;;;;;5054911;28;20041;-80
2023/09/10 05:10:03;;;;;;;45.63;32.45;;;21.50;91.10;;;;;;5038259;28;20030;-80
2023/09/10 05:12:28;;;;;;;49.50;32.15;;;21.50;91.10;;;;;;5054737;28;20055;-79
2023/09/10 05:14:54;;;;;;;48.22;32.75;;;21.50;91.10;;;;;;5038320;28;20029;-80
2023/09/10 05:17:20;;;;;;;49.13;33.10;;;21.50;91.10;;;;;;5038207;28;20025;-80
2023/09/10 05:19:47;;;;;;;46.90;31.42;;;21.50;91.10;;;;;;5054554;28;20053;-81
2023/09/10 05:22:12;;;;;;;43.75;32.13;;;21.50;91.00;;;;;;5038259;28;20093;-81
2023/09/10 05:24:38;;;;;;;49.97;33.63;;;21.50;91.00;;;;;;5054657;28;20031;-80
2023/09/10 05:27:04;;;;;;;48.75;33.75;;;21.40;91.10;;;;;;5054472;28;20029;-80
2023/09/10 05:29:29;;;;;;;47.95;32.90;;;21.40;91.30;;;;;;5054597;28;20044;-78
2023/09/10 05:31:56;;;;;;;45.55;31.52;;;21.40;91.30;;;;;;5037948;28;20105;-81
2023/09/10 05:34:21;;;;;;;50.28;32.13;;;21.30;91.30;;;;;;5054269;28;20060;-82
2023/09/10 05:36:48;;;;;;;50.22;31.10;;;21.30;91.30;;;;;;5054403;28;20038;-81
2023/09/10 05:39:14;;;;;;;48.03;31.60;;;21.30;91.40;;;;;;5054364;28;20022;-82
2023/09/10 05:41:39;;;;;;;46.83;32.08;;;21.30;91.80;;;;;;5037793;28;20040;-81
2023/09/10 05:44:05;;;;;;;48.70;33.28;;;21.30;91.50;;;;;;5054261;28;20030;-81
2023/09/10 05:46:31;;;;;;;50.42;33.10;;;21.30;91.60;;;;;;5054372;28;20476;-82
2023/09/10 05:48:56;;;;;;;47.47;32.45;;;21.40;91.60;;;;;;5054327;28;20040;-83
2023/09/10 05:51:22;;;;;;;53.20;34.47;;;21.40;91.60;;;;;;5037505;28;20030;-83
2023/09/10 05:53:48;;;;;;;48.55;32.80;;;21.40;91.70;;;;;;5054158;28;20041;-82
2023/09/10 05:56:13;;;;;;;55.60;33.83;;;21.40;91.70;;;;;;5053974;28;20025;-81
2023/09/10 05:58:39;;;;;;;52.33;33.75;;;21.30;91.80;;;;;;5037540;28;20487;-82
2023/09/10 06:01:06;;;;;;;54.20;34.65;;;21.30;91.90;;;;;;5054007;28;20064;-81
2023/09/10 06:03:31;;;;;;;61.05;36.13;;;21.30;92.00;;;;;;5037388;28;20025;-81
2023/09/10 06:05:58;;;;;;;52.78;34.63;;;21.30;92.10;;;;;;5054900;28;20566;-80
2023/09/10 06:08:24;;;;;;;53.63;36.10;;;21.30;92.20;;;;;;5054866;28;20018;-80
2023/09/10 06:10:50;;;;;;;54.40;35.60;;;21.40;92.30;;;;;;5053746;28;20030;-81
2023/09/10 06:13:15;;;;;;;55.67;36.88;;;21.40;92.30;;;;;;5054669;28;20029;-79
2023/09/10 06:15:41;;;;;;;57.38;37.05;;;21.40;92.40;;;;;;5037050;28;20024;-80
2023/09/10 06:18:06;;;;;;;60.85;38.03;;;21.40;92.40;;;;;;5053460;28;20022;-77
2023/09/10 06:20:32;;;;;;;58.15;39.25;;;21.40;92.40;;;;;;5054265;28;20053;-79
2023/09/10 06:22:58;;;;;;;61.97;38.63;;;21.40;92.50;;;;;;5036955;28;20063;-83
2023/09/10 06:25:24;;;;;;;61.10;39.08;;;21.40;92.50;;;;;;5053517;28;20101;-81
2023/09/10 06:27:50;;;;;;;59.25;38.97;;;21.40;92.60;;;;;;5053564;28;20018;-78
2023/09/10 06:30:15;;;;;;;66.50;41.30;;;21.50;92.70;;;;;;5054197;28;20088;-81
2023/09/10 06:32:41;;;;;;;65.53;41.22;;;21.50;92.80;;;;;;5053293;28;20033;-79
2023/09/10 06:35:07;;;;;;;65.70;40.78;;;21.50;92.80;;;;;;5053296;28;20112;-74
2023/09/10 06:37:33;;;;;;;61.33;41.53;;;21.50;92.80;;;;;;5053114;28;20025;-73
2023/09/10 06:39:59;;;;;;;62.83;41.08;;;21.50;92.90;;;;;;5036632;28;20559;-74
2023/09/10 06:42:24;;;;;;;61.47;40.85;;;21.50;92.90;;;;;;5036530;28;20033;-74
2023/09/10 06:44:50;;;;;;;65.70;41.05;;;21.60;92.90;;;;;;5054028;28;20025;-73
2023/09/10 06:47:15;;;;;;;65.30;41.85;;;21.70;92.90;;;;;;5053525;28;20480;-73
2023/09/10 06:49:41;;;;;;;61.10;40.05;;;21.70;92.90;;;;;;5052849;28;20057;-73
2023/09/10 06:52:08;;;;;;;63.80;42.10;;;21.70;92.90;;;;;;5053849;28;20085;-73
2023/09/10 06:54:34;;;;;;;63.65;40.35;;;21.80;93.00;;;;;;5036631;28;20042;-73
2023/09/10 06:57:00;;;;;;;63.28;41.90;;;21.80;93.10;;;;;;5052864;28;20081;-73
2023/09/10 06:59:29;;;;;;;64.85;41.28;;;21.80;93.10;;;;;;5036646;28;20499;-73
2023/09/10 07:01:55;;;;;;;65.65;39.15;;;21.90;93.20;;;;;;5053821;28;20033;-73
2023/09/10 07:04:22;;;;;;;63.88;39.33;;;21.90;93.30;;;;;;5052781;28;20053;-73
2023/09/10 07:06:50;;;;;;;60.38;38.92;;;21.90;93.20;;;;;;5053612;28;20035;-73
2023/09/10 07:09:21;;;;;;;58.03;38.55;;;22.00;93.20;;;;;;5052648;28;20052;-73
2023/09/10 07:11:56;;;;;;;58.28;38.75;;;22.00;93.20;;;;;;5053594;28;20488;-73
2023/09/10 07:14:22;;;;;;;56.67;38.40;;;22.00;93.10;;;;;;5053546;28;20033;-73
2023/09/10 07:16:48;;;;;;;57.33;37.80;;;22.10;93.00;;;;;;5052463;28;20021;-73
2023/09/10 07:19:14;;;;;;;59.15;39.00;;;22.20;93.00;;;;;;5052290;28;20090;-74
2023/09/10 07:21:40;;;;;;;61.03;38.63;;;22.20;93.10;;;;;;5053393;28;20029;-73
2023/09/10 07:24:06;;;;;;;61.03;38.42;;;22.20;93.20;;;;;;5052329;28;20090;-73
2023/09/10 07:26:38;;;;;;;54.92;36.35;;;22.30;93.20;;;;;;5053330;28;20025;-74
2023/09/10 07:29:08;;;;;;;54.78;35.85;;;22.40;93.10;;;;;;5053473;28;20077;-73
2023/09/10 07:31:35;;;;;;;53.75;36.38;;;22.40;92.90;;;;;;5053212;28;20025;-73
2023/09/10 07:34:01;;;;;;;56.08;35.63;;;22.50;92.80;;;;;;5052313;28;20025;-73
2023/09/10 07:36:27;;;;;;;52.80;36.40;;;22.50;92.80;;;;;;5052240;28;20028;-73
2023/09/10 07:38:54;;;;;;;54.03;35.58;;;22.60;92.70;;;;;;5052341;28;20027;-73
2023/09/10 07:41:20;;;;;;;51.05;34.50;;;22.60;92.70;;;;;;5053203;28;20026;-72
2023/09/10 07:43:46;;;;;;;50.03;33.83;;;22.60;92.50;;;;;;5052259;28;20030;-73
2023/09/10 07:46:11;;;;;;;51.22;34.75;;;22.70;92.40;;;;;;5052102;28;20036;-73
2023/09/10 07:48:38;;;;;;;49.35;34.28;;;22.70;92.70;;;;;;5035720;28;20029;-73
2023/09/10 07:51:04;;;;;;;51.58;33.65;;;22.80;92.30;;;;;;5052969;28;20022;-73
2023/09/10 07:53:29;;;;;;;52.80;35.17;;;22.80;92.30;;;;;;5052170;28;20022;-82
2023/09/10 07:55:56;;;;;;;49.85;33.67;;;22.90;92.20;;;;;;5053013;28;20033;-81
2023/09/10 07:58:22;;;;;;;51.05;33.38;;;23.00;92.20;;;;;;5054082;28;20021;-80
2023/09/10 08:00:48;;;;;;;49.08;33.95;;;23.10;92.20;;;;;;5056235;28;20059;-81
2023/09/10 08:03:14;;;;;;;51.65;33.40;;;23.10;92.20;;;;;;5039827;28;20033;-81
2023/09/10 08:05:41;;;;;;;50.40;33.17;;;23.20;92.10;;;;;;5056009;28;20033;-80
2023/09/10 08:08:06;;;;;;;49.03;32.53;;;23.30;92.00;;;;;;5039634;28;20033;-80
2023/09/10 08:10:33;;;;;;;48.03;32.35;;;23.40;91.60;;;;;;5056910;28;20040;-80
2023/09/10 08:13:00;;;;;;;52.50;33.88;;;23.40;91.50;;;;;;5056836;28;20018;-80
2023/09/10 08:15:26;;;;;;;46.28;32.50;;;23.50;91.60;;;;;;5055958;28;20025;-81
2023/09/10 08:17:55;;;;;;;48.88;31.40;;;23.60;91.30;;;;;;5055985;28;20056;-83
2023/09/10 08:20:21;;;;;;;48.25;32.80;;;23.70;91.20;;;;;;5055592;28;20042;-81
2023/09/10 08:22:47;;;;;;;46.60;32.30;;;23.80;91.30;;;;;;5055704;28;20026;-80
2023/09/10 08:25:13;;;;;;;44.67;30.70;;;23.90;91.20;;;;;;5055762;28;20085;-80
2023/09/10 08:27:39;;;;;;;45.10;30.38;;;24.00;91.10;;;;;;5055674;28;20025;-81
2023/09/10 08:30:09;;;;;;;44.08;30.00;;;24.10;91.00;;;;;;5055494;28;20088;-82
2023/09/10 08:32:35;;;;;;;41.72;29.58;;;24.10;90.70;;;;;;5055661;28;20026;-81
2023/09/10 08:35:01;;;;;;;41.83;29.42;;;24.20;90.80;;;;;;5056419;28;20017;-79
2023/09/10 08:37:27;;;;;;;48.03;29.10;;;24.30;90.70;;;;;;5055550;28;20025;-81
2023/09/10 08:39:53;;;;;;;40.63;28.35;;;24.40;90.70;;;;;;5055610;28;20021;-82
2023/09/10 08:42:39;;;;;;;40.28;28.20;;;24.50;90.30;;;;;;5056398;28;20040;-81
2023/09/10 08:45:07;;;;;;;42.13;28.08;;;24.60;89.90;;;;;;5055469;28;20064;-79
2023/09/10 08:47:40;;;;;;;39.20;27.75;;;24.70;90.00;;;;;;5038964;28;20037;-80
2023/09/10 08:50:12;;;;;;;39.47;26.45;;;24.80;89.80;;;;;;5055264;28;20041;-82
2023/09/10 08:52:45;;;;;;;42.60;28.55;;;24.90;89.90;;;;;;5056191;28;20073;-80
2023/09/10 08:55:12;;;;;;;40.20;27.27;;;25.00;88.90;;;;;;5055172;28;20026;-80
2023/09/10 08:57:39;;;;;;;39.92;27.48;;;25.00;89.30;;;;;;5055160;28;20034;-81
2023/09/10 09:00:12;;;;;;;38.28;27.08;;;25.20;88.30;;;;;;5055208;28;20124;-80
2023/09/10 09:02:41;;;;;;;;;;;25.20;87.90;;;;;;5055432;28;20037;-80
2023/09/10 09:05:08;;;;;;;39.45;26.38;;;25.30;88.50;;;;;;5038427;28;20029;-79
2023/09/10 09:07:49;;;;;;;36.70;24.30;;;25.40;88.90;;;;;;5055010;28;20022;-80
2023/09/10 09:10:21;;;;;;;31.95;22.75;;;25.50;88.70;;;;;;5055314;28;20036;-80
2023/09/10 09:12:52;;;;;;;33.38;22.85;;;25.60;86.50;;;;;;5054927;28;20029;-80
2023/09/10 09:15:19;;;;;;;33.60;22.50;;;25.70;86.50;;;;;;5054833;28;20083;-79
2023/09/10 09:17:46;;;;;;;35.10;22.00;;;25.70;85.70;;;;;;5055795;28;20029;-79
2023/09/10 09:20:14;;;;;;;37.88;22.02;;;25.80;84.60;;;;;;5054545;28;20052;-81
2023/09/10 09:22:42;;;;;;;29.70;20.40;;;25.80;85.20;;;;;;5054669;28;20049;-80
2023/09/10 09:25:09;;;;;;;30.25;20.58;;;26.00;84.90;;;;;;5054546;28;20107;-80
2023/09/10 09:27:36;;;;;;;28.83;20.88;;;26.10;83.80;;;;;;5038323;28;20026;-81
2023/09/10 09:30:05;;;;;;;31.80;20.67;;;26.10;83.80;;;;;;5054430;28;20034;-81
2023/09/10 09:32:37;;;;;;;32.28;20.23;;;26.20;83.40;;;;;;5055615;28;20056;-83
2023/09/10 09:35:03;;;;;;;28.63;20.42;;;26.30;83.50;;;;;;5038520;28;20393;-82
2023/09/10 09:37:33;;;;;;;28.33;19.75;;;26.50;82.80;;;;;;5054402;28;20089;-82
2023/09/10 09:40:21;;;;;;;30.95;19.65;;;26.50;82.60;;;;;;5055374;28;20042;-81
2023/09/10 09:42:47;;;;;;;28.70;18.95;;;26.60;83.70;;;;;;5055287;28;20026;-81
2023/09/10 09:45:12;;;;;;;27.75;18.90;;;26.80;83.50;;;;;;5054300;28;20059;-81
2023/09/10 09:47:45;;;;;;;25.17;18.80;;;26.80;82.70;;;;;;5037751;28;20033;-80
2023/09/10 09:50:13;;;;;;;;;;;27.00;81.30;;;;;;5054609;28;20030;-81
2023/09/10 09:52:38;;;;;;;24.63;16.90;;;27.00;81.60;;;;;;5054065;28;19909;-80
2023/09/10 09:55:05;;;;;;;29.10;17.60;;;27.00;81.70;;;;;;5037597;28;20036;-80
2023/09/10 09:57:35;;;;;;;29.33;18.92;;;27.10;81.80;;;;;;5037484;28;20022;-82
2023/09/10 10:00:01;;;;;;;25.70;18.08;;;27.20;81.70;;;;;;5054069;28;20049;-79
2023/09/10 10:02:26;;;;;;;24.38;17.45;;;27.30;80.10;;;;;;5037451;28;20439;-80
2023/09/10 10:04:53;;;;;;;23.67;16.23;;;27.40;80.50;;;;;;5053946;28;20037;-80
2023/09/10 10:07:22;;;;;;;26.85;16.50;;;27.40;81.10;;;;;;5053885;28;20049;-80
2023/09/10 10:09:48;;;;;;;19.83;15.73;;;27.50;80.50;;;;;;5053685;28;20029;-80
2023/09/10 10:12:13;;;;;;;26.77;15.75;;;27.60;80.30;;;;;;5054749;28;20028;-80
2023/09/10 10:14:40;;;;;;;24.75;16.77;;;27.80;80.00;;;;;;5053696;28;20035;-80
2023/09/10 10:17:06;;;;;;;23.95;16.50;;;27.80;78.90;;;;;;5037315;28;20037;-79
2023/09/10 10:19:33;;;;;;;22.58;16.60;;;27.80;79.20;;;;;;5053534;28;20051;-81
2023/09/10 10:22:00;;;;;;;26.85;16.98;;;27.90;78.40;;;;;;5052562;28;20090;-81
2023/09/10 10:24:26;;;;;;;21.45;14.65;;;27.90;78.80;;;;;;5053476;28;20089;-80
2023/09/10 10:26:53;;;;;;;23.13;15.95;;;28.00;79.30;;;;;;5054447;28;20049;-81
2023/09/10 10:29:20;;;;;;;23.10;16.10;;;28.10;79.10;;;;;;5053476;28;20028;-81
2023/09/10 10:31:51;;;;;;;20.08;13.70;;;28.10;78.50;;;;;;5054270;28;20032;-81
2023/09/10 10:34:23;;;;;;;21.88;15.25;;;28.30;78.80;;;;;;5054228;28;20090;-81
2023/09/10 10:37:00;;;;;;;26.50;15.63;;;28.40;78.00;;;;;;5054291;28;20029;-81
2023/09/10 10:39:38;;;;;;;24.48;15.27;;;28.40;77.90;;;;;;5053285;28;20025;-81
2023/09/10 10:42:08;;;;;;;20.77;14.65;;;28.50;77.00;;;;;;5054257;28;20021;-81
2023/09/10 10:44:37;;;;;;;23.35;14.43;;;28.50;77.70;;;;;;5054096;28;20044;-81
2023/09/10 10:47:20;;;;;;;19.55;12.65;;;28.50;76.70;;;;;;5053262;28;20022;-81
2023/09/10 10:49:55;;;;;;;18.80;12.40;;;28.60;76.50;;;;;;5052994;28;20527;-82
2023/09/10 10:52:31;;;;;;;18.67;12.15;;;28.60;76.40;;;;;;5052998;28;20037;-81
2023/09/10 10:54:57;;;;;;;21.42;12.30;;;28.70;77.80;;;;;;5052865;28;20025;-81
2023/09/10 10:57:25;;;;;;;19.95;12.73;;;28.80;76.20;;;;;;5052974;28;20026;-81
2023/09/10 10:59:51;;;;;;;18.45;11.50;;;28.90;75.90;;;;;;5053825;28;20022;-82
2023/09/10 11:02:22;;;;;;;15.55;9.75;;;28.90;76.70;;;;;;5036343;28;20021;-81
2023/09/10 11:04:55;;;;;;;16.33;10.63;;;29.00;76.20;;;;;;5052795;28;20052;-79
2023/09/10 11:07:22;;;;;;;16.70;10.32;;;29.20;76.30;;;;;;5052760;28;20030;-79
2023/09/10 11:09:48;;;;;;;13.13;9.68;;;29.30;77.30;;;;;;5052829;28;20071;-78
2023/09/10 11:12:14;;;;;;;18.42;9.40;;;29.40;76.50;;;;;;5052556;28;20021;-79
2023/09/10 11:14:58;;;;;;;14.38;8.93;;;29.40;74.10;;;;;;5052571;28;20120;-79
2023/09/10 11:17:29;;;;;;;13.50;8.70;;;29.50;73.70;;;;;;5052558;28;20025;-80
2023/09/10 11:19:55;;;;;;;13.93;8.75;;;29.40;73.20;;;;;;5052215;28;20083;-80
2023/09/10 11:22:21;;;;;;;12.50;8.63;;;29.50;74.10;;;;;;5053511;28;20049;-80
2023/09/10 11:25:05;;;;;;;14.75;8.43;;;29.60;73.60;;;;;;5053448;28;20021;-79
2023/09/10 11:27:33;;;;;;;13.10;8.00;;;29.60;75.20;;;;;;5052395;28;20025;-79
2023/09/10 11:30:06;;;;;;;14.73;8.40;;;29.60;73.30;;;;;;5052418;28;20037;-78
2023/09/10 11:32:31;;;;;;;12.15;8.57;;;29.70;74.00;;;;;;5052107;28;20026;-78
2023/09/10 11:35:19;;;;;;;11.30;7.72;;;29.90;73.50;;;;;;5052207;28;20080;-78
2023/09/10 11:37:47;;;;;;;10.70;8.32;;;29.90;73.20;;;;;;5053263;28;20044;-78
2023/09/10 11:40:13;;;;;;;12.80;7.63;;;29.80;71.90;;;;;;5053257;28;20026;-79
2023/09/10 11:42:43;;;;;;;10.68;8.10;;;29.90;72.20;;;;;;5052240;28;20026;-78
2023/09/10 11:45:09;;;;;;;11.43;7.65;;;29.90;71.70;;;;;;5035966;28;20025;-79
2023/09/10 11:47:35;;;;;;;12.27;7.63;;;29.90;71.20;;;;;;5053168;28;20084;-79
2023/09/10 11:50:03;;;;;;;12.52;7.47;;;30.00;72.20;;;;;;5052139;28;20036;-78
2023/09/10 11:52:29;;;;;;;11.52;7.78;;;30.00;72.30;;;;;;5052268;28;20048;-78
2023/09/10 11:54:56;;;;;;;11.95;7.30;;;30.10;72.30;;;;;;5053043;28;20053;-78
2023/09/10 11:57:22;;;;;;;11.35;7.38;;;30.20;72.60;;;;;;5053074;28;20045;-79
2023/09/10 11:59:52;;;;;;;10.90;7.63;;;30.30;73.00;;;;;;5052182;28;20520;-78
2023/09/10 12:02:20;;;;;;;9.73;6.85;;;30.40;72.40;;;;;;5053010;28;20025;-79
2023/09/10 12:04:46;;;;;;;8.82;6.95;;;30.50;72.40;;;;;;5052084;28;20053;-79
2023/09/10 12:07:12;;;;;;;13.18;7.40;;;30.50;71.20;;;;;;5052971;28;20045;-79
2023/09/10 12:09:38;;;;;;;8.15;7.13;;;30.50;72.00;;;;;;5052907;28;20028;-80
2023/09/10 12:12:25;;;;;;;11.73;7.47;;;30.50;71.70;;;;;;5035414;28;20099;-80
2023/09/10 12:14:51;;;;;;;12.88;7.05;;;30.60;70.90;;;;;;5052974;28;20022;-80
2023/09/10 12:17:17;;;;;;;11.48;7.22;;;30.50;70.30;;;;;;5053068;28;20033;-81
2023/09/10 12:19:44;;;;;;;11.45;7.15;;;30.40;70.70;;;;;;5035187;28;20105;-80
2023/09/10 12:22:10;;;;;;;14.18;7.22;;;30.50;70.20;;;;;;5051885;28;20032;-80
2023/09/10 12:24:40;;;;;;;10.85;7.30;;;30.50;71.70;;;;;;5051912;28;20041;-80
2023/09/10 12:27:06;;;;;;;9.43;7.03;;;30.50;69.10;;;;;;5052000;28;20052;-80
2023/09/10 12:29:32;;;;;;;12.40;6.97;;;30.50;70.60;;;;;;5052743;28;20013;-80